Terminal Aerodrome Forecast
Issued by NWS

Home | Current Version | Previous Version | Text Only | Print | Product List | Glossary On
Versions: 1 2 3 4 5 6 7 8 9 10 11 12
356
FTUS45 KABQ 102334
TAFFMN
TAF
KFMN 102334Z 1100/1124 11006KT P6SM BKN200
     FM110200 06006KT P6SM SCT090 BKN140
     FM111000 VRB05KT P6SM FEW030 BKN060
     FM112000 29010KT P6SM SCT060=

USA.gov is the U.S. government's official web portal to all federal, state and local government web resources and services.